Time;durP1;ratioP1;P1;durP2;ratioP2;P2;SDS_P1;SDS_P2;PMS_P1;PMS_P2;Temp;Humidity;BMP_temperature;BMP_pressure;BME280_temperature;BME280_humidity;BME280_pressure;Samples;Min_cycle;Max_cycle;Signal;HPM_P1;HPM_P2
2023/07/02 00:02:19;;;;;;;4.40;2.15;;;19.60;58.00;;;;;;4906202;29;20519;-57
2023/07/02 00:04:46;;;;;;;6.55;2.20;;;19.60;57.90;;;;;;4905544;29;20060;-56
2023/07/02 00:07:14;;;;;;;3.92;2.28;;;19.60;57.90;;;;;;4906188;29;20056;-57
2023/07/02 00:09:41;;;;;;;6.82;2.17;;;19.60;57.90;;;;;;4905824;29;20056;-57
2023/07/02 00:12:09;;;;;;;3.83;2.17;;;19.60;58.00;;;;;;4905299;29;20063;-57
2023/07/02 00:14:38;;;;;;;7.13;2.10;;;19.50;58.50;;;;;;4906191;29;20420;-57
2023/07/02 00:17:06;;;;;;;2.63;1.65;;;19.60;58.10;;;;;;4906013;29;20063;-56
2023/07/02 00:19:33;;;;;;;5.63;2.45;;;19.60;58.20;;;;;;4904674;29;20082;-57
2023/07/02 00:22:00;;;;;;;4.25;2.40;;;19.60;58.20;;;;;;4906002;29;20053;-57
2023/07/02 00:24:29;;;;;;;5.10;2.55;;;19.50;58.20;;;;;;4906349;29;20067;-58
2023/07/02 00:26:56;;;;;;;4.03;2.20;;;19.50;58.20;;;;;;4904267;29;20440;-57
2023/07/02 00:29:23;;;;;;;3.05;2.10;;;19.60;58.30;;;;;;4905747;29;20063;-57
2023/07/02 00:31:52;;;;;;;4.25;2.40;;;19.60;58.30;;;;;;4905954;29;20509;-57
2023/07/02 00:34:19;;;;;;;4.22;1.92;;;19.60;58.30;;;;;;4905434;29;20064;-55
2023/07/02 00:36:47;;;;;;;5.38;2.55;;;19.60;58.30;;;;;;4905674;29;20071;-57
2023/07/02 00:39:16;;;;;;;4.53;2.53;;;19.60;58.40;;;;;;4904038;29;20067;-55
2023/07/02 00:41:44;;;;;;;4.10;2.53;;;19.60;58.40;;;;;;4905080;29;20052;-57
2023/07/02 00:44:11;;;;;;;3.85;1.80;;;19.60;58.50;;;;;;4905387;29;20059;-55
2023/07/02 00:46:38;;;;;;;2.72;1.98;;;19.60;58.40;;;;;;4905797;29;20059;-55
2023/07/02 00:49:08;;;;;;;2.30;1.70;;;19.60;58.50;;;;;;4906658;29;20067;-53
2023/07/02 00:51:37;;;;;;;5.85;2.03;;;19.60;58.50;;;;;;4903644;29;20516;-48
2023/07/02 00:54:04;;;;;;;5.47;2.22;;;19.60;58.50;;;;;;4905208;29;20527;-48
2023/07/02 00:56:31;;;;;;;3.55;2.05;;;19.60;58.40;;;;;;4905413;29;20071;-52
2023/07/02 00:59:00;;;;;;;3.63;1.90;;;19.60;58.40;;;;;;4904811;29;20489;-48
2023/07/02 01:01:29;;;;;;;2.70;1.63;;;19.60;58.40;;;;;;4905167;29;20056;-56
2023/07/02 01:04:01;;;;;;;2.65;1.83;;;19.60;58.30;;;;;;4929382;23;20059;-51
2023/07/02 01:06:31;;;;;;;3.65;2.17;;;19.60;58.30;;;;;;4921841;29;20060;-54
2023/07/02 01:09:00;;;;;;;4.25;2.20;;;19.60;58.30;;;;;;4922329;29;20051;-52
2023/07/02 01:11:31;;;;;;;4.32;1.80;;;19.60;58.20;;;;;;4924844;29;20060;-53
2023/07/02 01:14:02;;;;;;;5.35;2.28;;;19.50;58.10;;;;;;4923943;29;20055;-51
2023/07/02 01:16:32;;;;;;;5.75;2.50;;;19.50;58.10;;;;;;4924330;29;20067;-56
2023/07/02 01:19:04;;;;;;;5.03;2.45;;;19.50;58.00;;;;;;4924442;29;20063;-53
2023/07/02 01:21:33;;;;;;;5.50;3.10;;;19.50;57.90;;;;;;4923936;29;20059;-47
2023/07/02 01:24:01;;;;;;;9.68;3.20;;;19.40;57.70;;;;;;4921533;29;20062;-57
2023/07/02 01:26:33;;;;;;;6.13;3.13;;;19.40;57.60;;;;;;4923991;29;20423;-54
2023/07/02 01:29:01;;;;;;;7.80;2.90;;;19.40;57.60;;;;;;4923513;29;20059;-54
2023/07/02 01:31:28;;;;;;;9.77;3.75;;;19.30;57.40;;;;;;4922752;29;20059;-56
2023/07/02 01:33:55;;;;;;;8.77;3.67;;;19.30;57.40;;;;;;4924551;29;20526;-56
2023/07/02 01:36:22;;;;;;;7.43;3.60;;;19.30;57.40;;;;;;4922864;29;20051;-53
2023/07/02 01:38:51;;;;;;;8.60;3.40;;;19.30;57.40;;;;;;4923364;29;20055;-54
2023/07/02 01:41:18;;;;;;;6.43;3.17;;;19.20;57.30;;;;;;4924318;29;20083;-54
2023/07/02 01:43:45;;;;;;;7.43;3.65;;;19.20;57.20;;;;;;4921412;29;20051;-53
2023/07/02 01:46:13;;;;;;;11.15;4.50;;;19.20;57.20;;;;;;4923684;29;20416;-58
2023/07/02 01:48:40;;;;;;;6.68;3.80;;;19.20;57.10;;;;;;4925516;29;20075;-53
2023/07/02 01:51:07;;;;;;;6.97;3.88;;;19.10;57.00;;;;;;4923473;29;20060;-50
2023/07/02 01:53:34;;;;;;;7.78;3.95;;;19.10;57.00;;;;;;4924068;29;20056;-53
2023/07/02 01:56:03;;;;;;;8.50;3.97;;;19.10;56.90;;;;;;4924037;29;20487;-57
2023/07/02 01:58:30;;;;;;;12.27;4.30;;;19.10;56.90;;;;;;4921354;29;20059;-52
2023/07/02 02:00:58;;;;;;;7.65;4.25;;;19.10;56.90;;;;;;4923210;29;20861;-56
2023/07/02 02:03:25;;;;;;;8.30;4.10;;;19.00;56.80;;;;;;4924888;29;20059;-51
2023/07/02 02:05:52;;;;;;;7.20;3.90;;;19.00;56.80;;;;;;4923052;29;20068;-49
2023/07/02 02:08:19;;;;;;;7.50;4.15;;;19.00;56.80;;;;;;4921701;29;20063;-48
2023/07/02 02:10:46;;;;;;;6.45;3.72;;;19.00;56.80;;;;;;4924317;29;20059;-61
2023/07/02 02:13:15;;;;;;;8.90;4.32;;;19.00;56.80;;;;;;4922502;29;20052;-59
2023/07/02 02:15:42;;;;;;;8.95;4.35;;;19.00;56.80;;;;;;4924701;29;20072;-59
2023/07/02 02:18:09;;;;;;;11.93;5.05;;;19.00;56.80;;;;;;4919265;29;20055;-60
2023/07/02 02:20:37;;;;;;;9.27;4.50;;;18.90;56.80;;;;;;4922255;29;20064;-60
2023/07/02 02:23:04;;;;;;;6.93;4.00;;;18.90;56.80;;;;;;4923487;29;20122;-60
2023/07/02 02:25:31;;;;;;;14.00;4.95;;;18.90;56.80;;;;;;4922821;29;20068;-59
2023/07/02 02:27:58;;;;;;;9.82;4.60;;;18.90;56.90;;;;;;4921758;29;20062;-58
2023/07/02 02:30:27;;;;;;;12.18;5.03;;;18.90;57.30;;;;;;4923297;29;20067;-60
2023/07/02 02:32:54;;;;;;;8.75;4.80;;;18.90;56.80;;;;;;4923895;29;20056;-58
2023/07/02 02:35:22;;;;;;;8.57;4.88;;;18.90;56.80;;;;;;4923481;29;20496;-59
2023/07/02 02:37:49;;;;;;;12.55;5.47;;;18.90;56.80;;;;;;4917493;29;20059;-59
2023/07/02 02:40:17;;;;;;;11.48;4.53;;;18.90;56.80;;;;;;4921912;29;20063;-60
2023/07/02 02:42:44;;;;;;;10.25;4.95;;;18.90;56.80;;;;;;4923695;29;20059;-59
2023/07/02 02:45:11;;;;;;;7.97;4.72;;;18.90;56.80;;;;;;4927240;29;20059;-59
2023/07/02 02:47:40;;;;;;;8.95;4.50;;;18.90;56.80;;;;;;4927685;29;20412;-59
2023/07/02 02:50:09;;;;;;;11.73;4.72;;;18.90;56.80;;;;;;4922377;29;20048;-59
2023/07/02 02:52:36;;;;;;;9.98;4.47;;;18.90;56.90;;;;;;4925691;29;20067;-59
2023/07/02 02:55:06;;;;;;;12.35;5.20;;;18.90;56.90;;;;;;4925061;29;20055;-60
2023/07/02 02:57:33;;;;;;;9.18;4.93;;;18.90;56.90;;;;;;4927531;29;20070;-60
2023/07/02 03:00:01;;;;;;;10.85;5.32;;;18.90;56.90;;;;;;4926062;29;20558;-58
2023/07/02 03:02:28;;;;;;;10.70;4.93;;;18.90;56.90;;;;;;4926475;29;20494;-60
2023/07/02 03:05:00;;;;;;;9.85;4.80;;;18.90;56.90;;;;;;4925673;29;20071;-59
2023/07/02 03:07:27;;;;;;;9.50;4.68;;;18.90;56.90;;;;;;4911625;29;20063;-60
2023/07/02 03:09:55;;;;;;;10.63;5.75;;;18.90;56.90;;;;;;4925309;29;20056;-60
2023/07/02 03:12:22;;;;;;;11.93;5.18;;;18.90;56.90;;;;;;4923816;29;20060;-59
2023/07/02 03:14:52;;;;;;;13.55;6.07;;;18.80;56.80;;;;;;4925627;29;20067;-60
2023/07/02 03:17:20;;;;;;;11.18;5.63;;;18.80;56.80;;;;;;4922248;29;20067;-59
2023/07/02 03:19:47;;;;;;;15.48;6.20;;;18.80;56.70;;;;;;4923456;29;20063;-59
2023/07/02 03:22:16;;;;;;;11.77;5.93;;;18.80;56.70;;;;;;4921711;29;20058;-58
2023/07/02 03:24:43;;;;;;;11.00;6.03;;;18.80;56.70;;;;;;4925484;29;20484;-59
2023/07/02 03:27:10;;;;;;;12.52;6.35;;;18.80;56.60;;;;;;4925977;29;20411;-59
2023/07/02 03:29:38;;;;;;;10.40;5.90;;;18.80;56.60;;;;;;4926079;29;20055;-58
2023/07/02 03:32:06;;;;;;;13.23;5.88;;;18.80;56.60;;;;;;4920161;29;20415;-59
2023/07/02 03:34:33;;;;;;;15.43;6.82;;;18.80;56.50;;;;;;4924423;29;20071;-59
2023/07/02 03:37:01;;;;;;;16.60;6.28;;;18.80;56.50;;;;;;4924189;29;20055;-59
2023/07/02 03:39:29;;;;;;;12.07;6.03;;;18.80;56.50;;;;;;4922556;29;20059;-59
2023/07/02 03:41:56;;;;;;;12.48;5.82;;;18.80;56.50;;;;;;4926330;29;20408;-59
2023/07/02 03:44:24;;;;;;;9.85;6.05;;;18.70;56.40;;;;;;5088033;23;20038;-62
2023/07/02 03:46:51;;;;;;;12.13;6.13;;;18.70;56.50;;;;;;4902165;29;20480;-52
2023/07/02 03:49:18;;;;;;;11.57;6.75;;;18.70;56.40;;;;;;4907263;29;20415;-54
2023/07/02 03:51:45;;;;;;;14.25;6.88;;;18.70;56.40;;;;;;4905205;29;20060;-52
2023/07/02 03:54:13;;;;;;;11.75;6.50;;;18.70;56.40;;;;;;4906446;29;20051;-59
2023/07/02 03:56:41;;;;;;;20.65;7.93;;;18.70;56.40;;;;;;4906875;29;20496;-51
2023/07/02 03:59:08;;;;;;;17.48;7.72;;;18.70;56.40;;;;;;4907458;29;20056;-57
2023/07/02 04:01:35;;;;;;;16.75;8.15;;;18.70;56.40;;;;;;4906800;29;20056;-56
2023/07/02 04:04:03;;;;;;;14.20;7.32;;;18.70;56.30;;;;;;4907330;29;20056;-56
2023/07/02 04:06:30;;;;;;;16.15;8.15;;;18.70;56.30;;;;;;4906224;29;20075;-55
2023/07/02 04:08:57;;;;;;;17.27;8.68;;;18.70;56.30;;;;;;4906537;29;20068;-56
2023/07/02 04:11:24;;;;;;;15.55;8.07;;;18.70;56.90;;;;;;4906129;29;20051;-57
2023/07/02 04:13:53;;;;;;;17.00;8.98;;;18.70;56.40;;;;;;4906897;29;20078;-54
2023/07/02 04:16:20;;;;;;;14.20;8.25;;;18.60;56.40;;;;;;4906479;29;20062;-55
2023/07/02 04:18:47;;;;;;;17.75;9.05;;;18.70;56.40;;;;;;4905369;29;20068;-55
2023/07/02 04:21:15;;;;;;;20.25;10.05;;;18.70;56.50;;;;;;4905778;29;20062;-53
2023/07/02 04:23:42;;;;;;;16.73;9.35;;;18.70;56.50;;;;;;4907276;29;20515;-55
2023/07/02 04:26:10;;;;;;;18.95;9.82;;;18.70;56.50;;;;;;4907026;29;20503;-54
2023/07/02 04:28:37;;;;;;;25.17;11.05;;;18.70;56.50;;;;;;4906301;29;20063;-54
2023/07/02 04:31:05;;;;;;;23.00;10.02;;;18.70;56.60;;;;;;4906691;29;20063;-53
2023/07/02 04:33:35;;;;;;;19.70;10.40;;;18.70;56.50;;;;;;4906581;29;20420;-57
2023/07/02 04:36:03;;;;;;;21.27;10.18;;;18.70;56.50;;;;;;4905280;29;20130;-61
2023/07/02 04:38:30;;;;;;;18.50;10.13;;;18.70;56.60;;;;;;4906527;29;20420;-61
2023/07/02 04:41:01;;;;;;;21.48;11.90;;;18.80;56.60;;;;;;4906870;29;20511;-61
2023/07/02 04:43:29;;;;;;;20.70;11.95;;;18.80;56.50;;;;;;4901029;29;20416;-62
2023/07/02 04:45:56;;;;;;;21.52;11.68;;;18.80;56.50;;;;;;4903173;29;20060;-60
2023/07/02 04:48:25;;;;;;;22.40;12.25;;;18.80;56.50;;;;;;4903925;29;20055;-56
2023/07/02 04:50:52;;;;;;;25.90;11.95;;;18.80;56.50;;;;;;4904161;29;20063;-55
2023/07/02 04:53:19;;;;;;;30.00;12.98;;;18.80;56.40;;;;;;4902892;29;20056;-55
2023/07/02 04:55:46;;;;;;;27.63;14.00;;;18.90;56.40;;;;;;4902725;29;20176;-55
2023/07/02 04:58:14;;;;;;;30.80;13.30;;;18.80;56.40;;;;;;4903826;29;20060;-54
2023/07/02 05:00:41;;;;;;;26.52;13.38;;;18.90;56.30;;;;;;4903736;29;20067;-58
2023/07/02 05:03:08;;;;;;;27.38;13.40;;;18.90;56.30;;;;;;4904964;29;20063;-56
2023/07/02 05:05:37;;;;;;;36.30;16.80;;;18.90;56.30;;;;;;4903384;29;20481;-55
2023/07/02 05:08:04;;;;;;;52.30;27.25;;;18.90;56.20;;;;;;4904637;29;20065;-54
2023/07/02 05:10:32;;;;;;;33.58;17.80;;;18.90;56.20;;;;;;4903556;29;21422;-55
2023/07/02 05:12:59;;;;;;;32.83;15.60;;;19.00;56.20;;;;;;4904534;29;20064;-52
2023/07/02 05:15:26;;;;;;;25.80;14.15;;;19.00;56.10;;;;;;4904382;29;20051;-56
2023/07/02 05:17:54;;;;;;;30.00;14.80;;;19.00;56.20;;;;;;4904570;29;20060;-52
2023/07/02 05:20:21;;;;;;;27.20;14.05;;;19.00;56.20;;;;;;4902840;29;20835;-57
2023/07/02 05:22:50;;;;;;;26.77;14.45;;;19.00;56.20;;;;;;4902790;29;20063;-53
2023/07/02 05:25:17;;;;;;;28.90;15.10;;;19.00;56.20;;;;;;4903816;29;20409;-53
2023/07/02 05:27:44;;;;;;;29.20;15.45;;;19.00;56.20;;;;;;4904053;29;20052;-52
2023/07/02 05:30:12;;;;;;;29.75;16.08;;;19.00;56.30;;;;;;4903368;29;20059;-54
2023/07/02 05:32:40;;;;;;;32.13;16.45;;;19.00;56.30;;;;;;4903511;29;20060;-49
2023/07/02 05:35:08;;;;;;;28.75;15.70;;;19.00;56.20;;;;;;4903779;29;20059;-51
2023/07/02 05:37:35;;;;;;;30.40;15.38;;;19.10;56.20;;;;;;4902950;29;20064;-51
2023/07/02 05:40:04;;;;;;;35.83;17.70;;;19.10;56.30;;;;;;4904601;29;20488;-53
2023/07/02 05:42:31;;;;;;;31.67;15.52;;;19.10;56.30;;;;;;4902244;29;20094;-54
2023/07/02 05:44:58;;;;;;;35.33;15.98;;;19.10;56.30;;;;;;4903794;29;20089;-55
2023/07/02 05:47:26;;;;;;;28.95;16.30;;;19.20;56.70;;;;;;4903249;29;20617;-54
2023/07/02 05:49:53;;;;;;;29.50;16.55;;;19.20;56.50;;;;;;4903053;29;20060;-53
2023/07/02 05:52:22;;;;;;;35.13;16.25;;;19.20;56.50;;;;;;4904021;29;20504;-55
2023/07/02 05:54:49;;;;;;;29.10;15.75;;;19.20;56.50;;;;;;4904560;29;20052;-58
2023/07/02 05:57:18;;;;;;;33.28;16.77;;;19.30;56.50;;;;;;4902757;29;20064;-50
2023/07/02 05:59:45;;;;;;;32.85;17.10;;;19.30;56.50;;;;;;4903497;29;20055;-54
2023/07/02 06:02:12;;;;;;;37.25;17.38;;;19.30;56.50;;;;;;4903677;29;20060;-52
2023/07/02 06:04:39;;;;;;;37.72;17.85;;;19.40;56.50;;;;;;4903674;29;20060;-52
2023/07/02 06:07:07;;;;;;;39.80;19.52;;;19.40;56.40;;;;;;4903091;29;20056;-55
2023/07/02 06:09:35;;;;;;;39.03;18.92;;;19.40;56.40;;;;;;4902871;29;20543;-53
2023/07/02 06:12:02;;;;;;;33.25;18.23;;;19.50;56.40;;;;;;4902654;29;20060;-54
2023/07/02 06:14:30;;;;;;;38.45;18.13;;;19.50;56.40;;;;;;4903720;29;20064;-53
2023/07/02 06:16:59;;;;;;;34.70;17.27;;;19.50;56.40;;;;;;4901546;29;20059;-51
2023/07/02 06:19:26;;;;;;;34.78;18.27;;;19.50;56.40;;;;;;4906899;29;20492;-53
2023/07/02 06:21:54;;;;;;;42.55;18.85;;;19.60;56.40;;;;;;4906788;29;20060;-48
2023/07/02 06:24:21;;;;;;;35.47;17.92;;;19.60;56.80;;;;;;4907611;29;20059;-48
2023/07/02 06:26:48;;;;;;;37.90;19.05;;;19.70;56.30;;;;;;4907206;29;20060;-51
2023/07/02 06:29:15;;;;;;;37.83;18.13;;;19.70;56.20;;;;;;4906766;29;20083;-49
2023/07/02 06:31:44;;;;;;;39.83;18.88;;;19.70;56.20;;;;;;4906749;29;20063;-52
2023/07/02 06:34:11;;;;;;;39.97;20.67;;;19.80;56.30;;;;;;4908075;29;20412;-55
2023/07/02 06:36:38;;;;;;;40.80;19.80;;;19.80;56.20;;;;;;4905972;29;20064;-53
2023/07/02 06:39:05;;;;;;;45.50;21.58;;;19.80;56.10;;;;;;4906115;29;20067;-49
2023/07/02 06:41:32;;;;;;;45.85;21.48;;;19.80;56.00;;;;;;4905938;29;20697;-49
2023/07/02 06:44:00;;;;;;;44.97;21.50;;;19.90;56.00;;;;;;4906536;29;20060;-55
2023/07/02 06:46:28;;;;;;;37.53;19.77;;;19.90;56.00;;;;;;4907261;29;20147;-51
2023/07/02 06:48:57;;;;;;;37.10;19.38;;;19.90;55.90;;;;;;4906293;29;20060;-54
2023/07/02 06:51:26;;;;;;;47.58;21.65;;;20.00;55.90;;;;;;4905559;29;20409;-50
2023/07/02 06:53:53;;;;;;;43.97;22.52;;;20.00;55.90;;;;;;4907261;29;20052;-55
2023/07/02 06:56:21;;;;;;;37.33;19.45;;;20.10;55.90;;;;;;4906413;29;20044;-51
2023/07/02 06:58:48;;;;;;;35.95;19.05;;;20.10;55.90;;;;;;4905517;29;20063;-55
2023/07/02 07:01:15;;;;;;;42.80;19.98;;;20.10;56.00;;;;;;4902826;29;20059;-50
2023/07/02 07:03:43;;;;;;;39.45;20.83;;;20.20;56.10;;;;;;4905867;29;20401;-54
2023/07/02 07:06:12;;;;;;;38.47;19.50;;;20.20;56.00;;;;;;4905940;29;20056;-52
2023/07/02 07:08:40;;;;;;;37.70;19.48;;;20.20;56.00;;;;;;4906523;29;20056;-53
2023/07/02 07:11:07;;;;;;;42.70;19.80;;;20.30;55.90;;;;;;4902805;29;20902;-50
2023/07/02 07:13:34;;;;;;;46.00;21.17;;;20.30;55.70;;;;;;4901312;29;20059;-55
2023/07/02 07:16:01;;;;;;;39.33;19.90;;;20.30;55.50;;;;;;4900863;29;20059;-56
2023/07/02 07:18:29;;;;;;;37.95;19.30;;;20.40;55.60;;;;;;4905033;29;20067;-55
2023/07/02 07:20:56;;;;;;;37.53;19.50;;;20.50;55.70;;;;;;4905610;29;20052;-56
2023/07/02 07:23:25;;;;;;;38.50;18.73;;;20.50;55.70;;;;;;4902668;29;20048;-52
2023/07/02 07:25:52;;;;;;;37.42;19.30;;;20.50;55.50;;;;;;4904214;29;20056;-56
2023/07/02 07:28:19;;;;;;;40.40;19.85;;;20.60;55.30;;;;;;4902176;29;20052;-56
2023/07/02 07:30:46;;;;;;;35.22;18.88;;;20.60;55.20;;;;;;4904761;29;20055;-57
2023/07/02 07:33:13;;;;;;;41.88;20.48;;;20.60;55.20;;;;;;4903873;29;20531;-59
2023/07/02 07:35:41;;;;;;;37.67;20.33;;;20.70;55.00;;;;;;4900411;29;20059;-57
2023/07/02 07:38:08;;;;;;;38.58;18.60;;;20.70;54.90;;;;;;4903249;29;20508;-55
2023/07/02 07:40:36;;;;;;;49.53;20.05;;;20.80;54.70;;;;;;4906234;29;20052;-52
2023/07/02 07:43:04;;;;;;;41.17;19.02;;;20.80;54.50;;;;;;4901683;29;20060;-56
2023/07/02 07:45:31;;;;;;;39.28;18.25;;;20.80;54.30;;;;;;4903465;29;20519;-52
2023/07/02 07:47:58;;;;;;;38.75;18.05;;;20.80;54.00;;;;;;4903509;29;20063;-54
2023/07/02 07:50:25;;;;;;;41.15;18.77;;;20.90;53.70;;;;;;4901652;29;20063;-53
2023/07/02 07:52:53;;;;;;;38.65;19.30;;;20.90;53.30;;;;;;4905865;29;20064;-52
2023/07/02 07:55:20;;;;;;;41.00;18.38;;;20.90;53.10;;;;;;4904194;29;20381;-54
2023/07/02 07:57:48;;;;;;;36.35;17.80;;;20.90;53.30;;;;;;4900072;29;20056;-54
2023/07/02 08:00:17;;;;;;;42.03;19.00;;;21.00;53.30;;;;;;4899245;29;20064;-55
2023/07/02 08:02:44;;;;;;;40.65;19.35;;;21.00;53.10;;;;;;4902372;29;20060;-52
2023/07/02 08:05:11;;;;;;;34.75;16.95;;;21.00;52.80;;;;;;4904519;29;20056;-57
2023/07/02 08:07:41;;;;;;;41.08;17.08;;;21.00;52.40;;;;;;4897193;29;20064;-56
2023/07/02 08:10:09;;;;;;;35.45;16.67;;;21.00;51.70;;;;;;4903390;29;20489;-57
2023/07/02 08:12:36;;;;;;;35.25;15.70;;;21.00;51.80;;;;;;4899114;29;20420;-55
2023/07/02 08:15:05;;;;;;;45.33;17.52;;;20.90;52.20;;;;;;4903267;29;20056;-56
2023/07/02 08:17:34;;;;;;;40.42;17.27;;;20.90;52.00;;;;;;4904985;29;20052;-52
2023/07/02 08:20:01;;;;;;;30.27;14.98;;;20.90;52.00;;;;;;4903620;29;20114;-56
2023/07/02 08:22:28;;;;;;;37.47;16.77;;;20.90;52.10;;;;;;4899773;29;20067;-58
2023/07/02 08:24:55;;;;;;;32.42;15.13;;;21.00;51.80;;;;;;4904009;29;20059;-56
2023/07/02 08:27:23;;;;;;;28.80;13.30;;;21.00;51.70;;;;;;4902715;29;20056;-52
2023/07/02 08:29:50;;;;;;;31.20;13.98;;;21.00;51.30;;;;;;4903313;29;20066;-54
2023/07/02 08:32:19;;;;;;;32.47;14.13;;;21.00;51.40;;;;;;4905154;29;20063;-54
2023/07/02 08:34:46;;;;;;;33.78;14.70;;;21.10;50.80;;;;;;4899363;29;20420;-54
2023/07/02 08:37:13;;;;;;;33.22;14.38;;;21.10;50.90;;;;;;4902124;29;20059;-56
2023/07/02 08:39:40;;;;;;;28.67;13.68;;;21.20;50.80;;;;;;4904303;29;20415;-52
2023/07/02 08:42:08;;;;;;;30.70;14.45;;;21.20;50.60;;;;;;4898354;29;20059;-56
2023/07/02 08:44:36;;;;;;;26.77;13.38;;;21.20;49.90;;;;;;4900366;29;20079;-56
2023/07/02 08:47:03;;;;;;;32.15;13.70;;;21.30;49.80;;;;;;4902596;29;20064;-54
2023/07/02 08:49:32;;;;;;;27.55;13.60;;;21.30;48.90;;;;;;4902637;29;20083;-52
2023/07/02 08:51:59;;;;;;;31.77;14.88;;;21.30;49.50;;;;;;4904271;29;20063;-56
2023/07/02 08:54:27;;;;;;;31.60;14.27;;;21.30;49.10;;;;;;4905052;29;20056;-56
2023/07/02 08:56:54;;;;;;;28.45;13.85;;;21.40;48.80;;;;;;4903201;29;20048;-58
2023/07/02 08:59:21;;;;;;;29.30;14.00;;;21.40;49.70;;;;;;4904177;29;20426;-56
2023/07/02 09:01:50;;;;;;;28.13;14.18;;;21.40;49.20;;;;;;4903032;29;20051;-55
2023/07/02 09:04:19;;;;;;;33.88;14.65;;;21.50;49.20;;;;;;4902806;29;20424;-51
2023/07/02 09:06:48;;;;;;;29.48;13.80;;;21.50;48.90;;;;;;4902652;29;20044;-49
2023/07/02 09:09:15;;;;;;;31.77;14.35;;;21.60;49.10;;;;;;4901772;29;20060;-56
2023/07/02 09:11:50;;;;;;;30.25;14.25;;;21.60;49.10;;;;;;4901646;29;20071;-57
2023/07/02 09:14:28;;;;;;;35.58;13.90;;;21.70;49.20;;;;;;4901639;29;20063;-55
2023/07/02 09:17:06;;;;;;;34.80;14.13;;;21.70;46.90;;;;;;4903553;29;20060;-56
2023/07/02 09:19:34;;;;;;;29.80;13.43;;;21.80;47.70;;;;;;4900857;29;20056;-53
2023/07/02 09:22:05;;;;;;;29.40;14.30;;;21.80;48.20;;;;;;4899974;29;20059;-56
2023/07/02 09:24:33;;;;;;;32.38;14.95;;;21.80;48.00;;;;;;4902178;29;20063;-56
2023/07/02 09:27:02;;;;;;;34.47;14.13;;;21.90;47.10;;;;;;4898516;29;20484;-56
2023/07/02 09:29:30;;;;;;;26.10;13.02;;;21.90;47.00;;;;;;4903715;29;20060;-54
2023/07/02 09:31:59;;;;;;;31.40;13.15;;;22.00;46.80;;;;;;4904656;29;20056;-52
2023/07/02 09:34:30;;;;;;;36.28;13.45;;;22.00;47.00;;;;;;4903824;29;20060;-56
2023/07/02 09:36:58;;;;;;;30.23;13.73;;;22.00;46.60;;;;;;4899526;29;20052;-56
2023/07/02 09:39:31;;;;;;;33.75;14.85;;;22.10;46.90;;;;;;4902832;29;20067;-54
2023/07/02 09:41:59;;;;;;;28.53;14.30;;;22.10;46.10;;;;;;4903884;29;20063;-57
2023/07/02 09:44:29;;;;;;;28.67;14.38;;;22.00;46.60;;;;;;4904077;29;20504;-53
2023/07/02 09:47:03;;;;;;;30.88;14.10;;;22.10;46.80;;;;;;4903178;29;20056;-53
2023/07/02 09:49:33;;;;;;;28.40;15.20;;;22.10;46.20;;;;;;4903168;29;20064;-58
2023/07/02 09:52:01;;;;;;;33.97;15.60;;;22.00;46.10;;;;;;4902984;29;20060;-57
2023/07/02 09:54:30;;;;;;;34.33;15.55;;;21.90;46.30;;;;;;4907527;29;20056;-57
2023/07/02 09:56:58;;;;;;;31.40;14.93;;;21.90;46.60;;;;;;4903618;29;20044;-57
2023/07/02 09:59:25;;;;;;;30.48;14.25;;;21.80;46.60;;;;;;4907808;29;20052;-54
2023/07/02 10:01:53;;;;;;;29.80;14.68;;;21.80;47.30;;;;;;4907522;29;20052;-54
2023/07/02 10:04:23;;;;;;;30.95;15.02;;;21.70;47.30;;;;;;4907839;29;20508;-54
2023/07/02 10:06:51;;;;;;;36.72;15.93;;;21.70;47.40;;;;;;4906322;29;20063;-57
2023/07/02 10:09:18;;;;;;;35.10;15.38;;;21.70;47.50;;;;;;4905232;29;20051;-54
2023/07/02 10:11:47;;;;;;;32.88;14.55;;;21.70;47.60;;;;;;4906918;29;20067;-57
2023/07/02 10:14:14;;;;;;;28.08;14.82;;;21.70;47.10;;;;;;4906525;29;20420;-57
2023/07/02 10:16:52;;;;;;;28.27;13.70;;;21.70;47.00;;;;;;4907889;29;20377;-56
2023/07/02 10:19:20;;;;;;;31.05;15.57;;;21.70;47.40;;;;;;4907587;29;20473;-57
2023/07/02 10:21:49;;;;;;;30.33;14.80;;;21.70;47.50;;;;;;4904704;29;20052;-57
2023/07/02 10:24:18;;;;;;;34.53;16.48;;;21.80;47.50;;;;;;4903998;29;21996;-56
2023/07/02 10:26:58;;;;;;;30.83;15.68;;;21.80;47.50;;;;;;4905928;29;20056;-56
2023/07/02 10:29:26;;;;;;;29.70;14.52;;;21.80;47.70;;;;;;4904291;29;20060;-56
2023/07/02 10:31:55;;;;;;;29.25;14.93;;;21.80;47.90;;;;;;4906644;29;20056;-57
2023/07/02 10:34:33;;;;;;;30.50;14.65;;;21.90;47.90;;;;;;4905530;29;20516;-56
2023/07/02 10:37:02;;;;;;;28.52;13.95;;;21.90;47.60;;;;;;4905948;29;20052;-51
2023/07/02 10:39:30;;;;;;;31.25;14.65;;;22.00;48.10;;;;;;4907115;29;20060;-58
2023/07/02 10:42:09;;;;;;;29.58;14.98;;;22.00;48.10;;;;;;4907385;29;20055;-57
2023/07/02 10:44:47;;;;;;;31.60;14.05;;;22.00;48.20;;;;;;4906848;29;20048;-56
2023/07/02 10:47:14;;;;;;;30.63;14.50;;;22.10;48.60;;;;;;4905455;29;20516;-56
2023/07/02 10:49:42;;;;;;;32.17;14.35;;;22.10;48.20;;;;;;4896425;29;20063;-57
2023/07/02 10:52:09;;;;;;;28.58;14.82;;;22.30;48.60;;;;;;4904229;29;20505;-59
2023/07/02 10:54:41;;;;;;;28.88;14.43;;;22.30;48.30;;;;;;4907012;29;20056;-58
2023/07/02 10:57:11;;;;;;;27.02;13.80;;;22.40;48.00;;;;;;4904301;29;20056;-58
2023/07/02 10:59:38;;;;;;;30.20;14.88;;;22.40;47.70;;;;;;4904321;29;20064;-56
2023/07/02 11:02:06;;;;;;;26.92;14.63;;;22.50;47.80;;;;;;4907536;29;20064;-56
2023/07/02 11:04:34;;;;;;;28.00;14.85;;;22.50;47.80;;;;;;4907150;29;20424;-58
2023/07/02 11:07:02;;;;;;;30.85;13.65;;;22.50;47.30;;;;;;4903050;29;20060;-57
2023/07/02 11:09:29;;;;;;;29.38;14.30;;;22.60;47.60;;;;;;4907902;29;20056;-55
2023/07/02 11:11:57;;;;;;;30.02;14.43;;;22.60;48.00;;;;;;4904004;29;20523;-56
2023/07/02 11:14:30;;;;;;;29.17;14.02;;;22.70;47.80;;;;;;4906120;29;20067;-56
2023/07/02 11:16:58;;;;;;;49.60;14.23;;;22.70;47.20;;;;;;4905500;29;20052;-53
2023/07/02 11:19:26;;;;;;;26.60;12.75;;;22.70;46.80;;;;;;4907757;29;20059;-57
2023/07/02 11:21:55;;;;;;;29.35;12.25;;;22.70;46.30;;;;;;4903280;29;20067;-55
2023/07/02 11:24:31;;;;;;;21.77;12.20;;;22.70;46.40;;;;;;4907223;29;20052;-57
2023/07/02 11:26:59;;;;;;;24.50;12.23;;;22.70;46.20;;;;;;4903783;29;20048;-57
2023/07/02 11:29:27;;;;;;;31.02;14.18;;;22.70;46.40;;;;;;4906919;29;20492;-56
2023/07/02 11:31:55;;;;;;;22.67;11.90;;;22.80;46.70;;;;;;4907503;29;20408;-49
2023/07/02 11:34:23;;;;;;;29.58;14.48;;;22.70;46.70;;;;;;4906661;29;20424;-57
2023/07/02 11:36:53;;;;;;;26.27;13.57;;;22.70;46.70;;;;;;4903044;29;20497;-56
2023/07/02 11:39:21;;;;;;;29.30;13.90;;;22.70;46.40;;;;;;4900346;29;20056;-57
2023/07/02 11:41:50;;;;;;;28.00;12.63;;;22.80;46.40;;;;;;4901365;29;20061;-56
2023/07/02 11:44:17;;;;;;;24.73;12.60;;;22.80;46.20;;;;;;4903338;29;20064;-55
2023/07/02 11:46:46;;;;;;;24.10;13.13;;;22.80;46.00;;;;;;4905516;29;20408;-55
2023/07/02 11:49:16;;;;;;;26.65;13.50;;;22.80;45.90;;;;;;4905998;29;20059;-52
2023/07/02 11:51:48;;;;;;;29.88;13.10;;;22.80;45.70;;;;;;4904265;29;20420;-51
2023/07/02 11:54:16;;;;;;;25.77;13.35;;;22.80;45.30;;;;;;4906334;29;20052;-56
2023/07/02 11:56:43;;;;;;;24.05;12.52;;;22.80;44.60;;;;;;4903398;29;20489;-57
2023/07/02 11:59:10;;;;;;;28.17;12.65;;;22.90;45.00;;;;;;4906331;29;20067;-54
2023/07/02 12:01:38;;;;;;;28.02;12.80;;;22.90;45.20;;;;;;4905331;29;20372;-54
2023/07/02 12:04:07;;;;;;;29.25;12.65;;;22.90;45.50;;;;;;4905824;29;20428;-51
2023/07/02 12:06:36;;;;;;;22.60;12.57;;;22.90;44.90;;;;;;4897686;29;20098;-57
2023/07/02 12:09:03;;;;;;;27.98;12.85;;;23.00;45.10;;;;;;4897923;29;20719;-58
2023/07/02 12:11:30;;;;;;;27.63;12.75;;;23.00;44.40;;;;;;4900412;29;20527;-56
2023/07/02 12:13:57;;;;;;;25.15;11.70;;;23.10;42.80;;;;;;4904556;29;20056;-57
2023/07/02 12:16:25;;;;;;;27.25;12.30;;;23.10;43.20;;;;;;4898183;29;20056;-57
2023/07/02 12:18:52;;;;;;;27.67;13.27;;;23.20;43.00;;;;;;4904100;29;20067;-54
2023/07/02 12:21:19;;;;;;;23.92;12.40;;;23.20;43.10;;;;;;4904249;29;20062;-56
2023/07/02 12:23:48;;;;;;;25.85;12.75;;;23.20;43.50;;;;;;4904990;29;20056;-58
2023/07/02 12:26:15;;;;;;;26.33;12.63;;;23.30;43.60;;;;;;4898636;29;20052;-57
2023/07/02 12:28:42;;;;;;;24.70;13.05;;;23.40;43.70;;;;;;4902291;29;21676;-57
2023/07/02 12:31:10;;;;;;;25.63;12.55;;;23.40;42.60;;;;;;4905172;29;20055;-59
2023/07/02 12:33:37;;;;;;;26.05;13.13;;;23.50;42.40;;;;;;4904467;29;20055;-52
2023/07/02 12:36:04;;;;;;;27.67;13.27;;;23.60;41.50;;;;;;4900328;29;20529;-54
2023/07/02 12:38:31;;;;;;;27.88;13.05;;;23.70;41.90;;;;;;4903715;29;20180;-58